Terminal Aerodrome Forecast
Issued by NWS

Current Version | Previous Version | Text Only | Print | Product List | Glossary Off
Versions: 1 2 3 4 5 6 7 8 9 10 11 12 13 14 15 16 17

357
FTUS41 KPBZ 171729
TAFHLG
TAF
KHLG 171729Z 1718/1818 18007KT P6SM BKN080
     FM172000 18005KT P6SM VCTS BKN035CB
      TEMPO 1720/1724 5SM -TSRA BKN035CB
     FM180400 22005KT 5SM -SHRA OVC035
     FM181000 22006KT 5SM BR VCSH BKN020
     FM181200 22008KT P6SM BKN015
     FM181700 23011G19KT P6SM BKN040=

USA.gov is the U.S. government's official web portal to all federal, state and local government web resources and services.